Airfield :
LOGIN :

Register | Disclaimer

   EN    FR    IT 

 










Legend :    VFR   Marginal VFR   IFR   Intensive IFR   Very Intensive IFR
Visi :
Ceiling :
>= 8 km
>= 3000ft
5 to 8 km
1000 to 3000 ft
1500m to 5 km
500 to 1000 ft
800 to 1500m
200 to 500 ft
< 800m
< 200 ft
Symbols :   Thunderstorms  Fog  Heavy snow  Heavy precipitations  Wind > 20 kt
SIGMETs :     Misc.  Thunderstorms  Icing  Turbulence  Mountain Waves  Volcanic Ashes







- Airport Elevation : 459 ft
- IATA code : CER
- Download approach charts


LFRC - Cherbourg / Maupertus

CURRENT METAR :
  • 151200Z AUTO 14008KT 9999 FEW003 13/11 Q1019 NOSIG

EXPIRED METARs :
  • 151130Z AUTO 15008KT 5000 BR SCT002 12/11 Q1019 NOSIG
  • 151100Z AUTO 14007KT 7000 VV/// 13/12 Q1019 TEMPO 2000 BR BECMG SCT008
  • 151030Z AUTO 16007KT 1200 0900 R28/1600D BCFG VV/// 12/11 Q1020 BECMG 9999 NSW SCT008
  • 151000Z AUTO 16007KT 0450 0400 R28/0650U FG VV/// 11/11 Q1020 BECMG 2000 BR BKN004
  • 150930Z AUTO 15006KT 0300 R28/0550U FG VV/// 11/10 Q1020 BECMG 2000 BR BKN004

TAF TAF LFRC
Valid from the 15 at 12:00 until the 15 at 21:00 UTC


151100Z 1512/1521 15008KT 7000 BKN004
BECMG 1512/1514 SCT012
No reported NOTAMs for that airfield.



MET'MAP, your aeronautical weather chart ! - Copyright ORBIFLY December 2007 - Disclaimer

ORBIFLY MET'MAP TEAM :

Programming & Development : Alexandra Zaïnal
Concept & Development : Baudouin d'Aumeries
Co-Development & Prog : Marc-Olivier Méhu
Technical & hardware support : Manuel Goepfert

Contact : metmap@orbifly.com




SOURCES & CREDITS :

   NOAA